createdAt,value
2017-07-22T00:00:20.857Z,0
2017-07-22T00:02:45.104Z,0
2017-07-22T00:05:09.408Z,0
2017-07-22T00:07:33.695Z,0
2017-07-22T00:09:49.525Z,0
2017-07-22T00:12:05.273Z,0
2017-07-22T00:14:29.451Z,0
2017-07-22T00:16:45.297Z,0
2017-07-22T00:19:09.628Z,0
2017-07-22T00:21:25.468Z,0
2017-07-22T00:23:49.684Z,0
2017-07-22T00:26:13.977Z,0
2017-07-22T00:28:38.277Z,0
2017-07-22T00:31:02.565Z,0
2017-07-22T00:33:26.849Z,0
2017-07-22T00:35:51.135Z,0
2017-07-22T00:38:15.420Z,0
2017-07-22T00:40:39.607Z,0
2017-07-22T00:43:03.793Z,0
2017-07-22T00:45:28.083Z,0
2017-07-22T00:47:52.367Z,0
2017-07-22T00:50:16.655Z,0
2017-07-22T00:52:40.956Z,0
2017-07-22T00:54:56.783Z,0
2017-07-22T00:57:21.097Z,0
2017-07-22T01:01:38.228Z,0
2017-07-22T01:03:53.972Z,0
2017-07-22T01:06:18.174Z,0
2017-07-22T01:08:42.362Z,0
2017-07-22T01:10:58.054Z,0
2017-07-22T01:13:13.723Z,0
2017-07-22T01:15:37.900Z,0
2017-07-22T01:18:02.092Z,0
2017-07-22T01:20:26.328Z,0
2017-07-22T01:22:42.152Z,0
2017-07-22T01:25:06.391Z,0
2017-07-22T01:27:30.684Z,0
2017-07-22T01:29:54.863Z,0
2017-07-22T01:32:19.155Z,0
2017-07-22T01:34:43.330Z,0
2017-07-22T01:37:07.503Z,0
2017-07-22T01:39:31.709Z,0
2017-07-22T01:41:56.005Z,0
2017-07-22T01:44:20.273Z,0
2017-07-22T01:46:44.565Z,0
2017-07-22T01:49:08.865Z,0
2017-07-22T01:51:33.043Z,0
2017-07-22T01:53:48.861Z,0
2017-07-22T01:56:04.575Z,0
2017-07-22T02:00:21.759Z,0
2017-07-22T02:02:45.930Z,0
2017-07-22T02:05:10.111Z,0
2017-07-22T02:07:34.405Z,0
2017-07-22T02:09:33.305Z,0
2017-07-22T02:11:57.480Z,0
2017-07-22T02:14:21.770Z,0
2017-07-22T02:16:46.062Z,0
2017-07-22T02:19:01.836Z,0
2017-07-22T02:21:26.033Z,0
2017-07-22T02:23:41.785Z,0
2017-07-22T02:26:06.004Z,0
2017-07-22T02:28:30.283Z,0
2017-07-22T02:30:54.442Z,0
2017-07-22T02:33:10.259Z,0
2017-07-22T02:35:34.550Z,0
2017-07-22T02:37:58.832Z,0
2017-07-22T02:40:23.109Z,0
2017-07-22T02:42:47.290Z,0
2017-07-22T02:45:11.479Z,0
2017-07-22T02:47:27.224Z,0
2017-07-22T02:53:28.943Z,0
2017-07-22T02:55:44.676Z,0
2017-07-22T02:58:08.785Z,0
2017-07-22T03:00:32.929Z,0
2017-07-22T03:02:57.076Z,0
2017-07-22T03:05:21.197Z,0
2017-07-22T03:07:36.921Z,0
2017-07-22T03:09:52.637Z,0
2017-07-22T03:12:16.842Z,0
2017-07-22T03:14:41.017Z,0
2017-07-22T03:17:05.211Z,0
2017-07-22T03:19:29.500Z,0
2017-07-22T03:21:53.635Z,0
2017-07-22T03:24:17.855Z,0
2017-07-22T03:26:25.154Z,4
2017-07-22T03:28:49.425Z,0
2017-07-22T03:31:13.717Z,4
2017-07-22T03:33:29.508Z,4
2017-07-22T03:35:53.795Z,8
2017-07-22T03:38:18.079Z,12
2017-07-22T03:40:42.259Z,16
2017-07-22T03:42:58.000Z,16
2017-07-22T03:45:05.330Z,20
2017-07-22T03:47:29.513Z,24
2017-07-22T03:49:53.700Z,32
2017-07-22T03:52:17.890Z,40
2017-07-22T03:54:42.058Z,48
2017-07-22T03:56:52.014Z,56
2017-07-22T03:59:16.197Z,72
2017-07-22T04:01:40.375Z,84
2017-07-22T04:04:04.542Z,92
2017-07-22T04:06:28.720Z,104
2017-07-22T04:08:38.685Z,112
2017-07-22T04:10:54.391Z,120
2017-07-22T04:13:18.549Z,124
2017-07-22T04:15:34.247Z,128
2017-07-22T04:17:58.452Z,144
2017-07-22T04:20:22.618Z,160
2017-07-22T04:22:38.354Z,180
2017-07-22T04:25:02.602Z,200
2017-07-22T04:27:26.770Z,200
2017-07-22T04:29:50.977Z,224
2017-07-22T04:32:15.107Z,312
2017-07-22T04:34:39.338Z,460
2017-07-22T04:37:03.454Z,628
2017-07-22T04:39:27.710Z,764
2017-07-22T04:41:51.896Z,868
2017-07-22T04:44:07.737Z,868
2017-07-22T04:46:31.978Z,820
2017-07-22T04:48:56.251Z,952
2017-07-22T04:53:21.984Z,1248
2017-07-22T04:55:46.208Z,1400
2017-07-22T04:58:10.385Z,1640
2017-07-22T05:00:34.564Z,1924
2017-07-22T05:02:58.807Z,2248
2017-07-22T05:05:23.065Z,2312
2017-07-22T05:07:38.941Z,2528
2017-07-22T05:09:54.786Z,4576
2017-07-22T05:12:02.239Z,3728
2017-07-22T05:14:26.691Z,3580
2017-07-22T05:16:51.392Z,4960
2017-07-22T05:19:07.587Z,3144
2017-07-22T05:21:32.449Z,5000
2017-07-22T05:23:57.330Z,3544
2017-07-22T05:28:24.282Z,6136
2017-07-22T05:30:49.353Z,6464
2017-07-22T05:33:14.513Z,6696
2017-07-22T05:35:39.893Z,3632
2017-07-22T05:38:05.374Z,3756
2017-07-22T05:40:22.372Z,3936
2017-07-22T05:42:39.189Z,5352
2017-07-22T05:45:04.464Z,4972
2017-07-22T05:47:21.153Z,7628
2017-07-22T05:49:46.511Z,9176
2017-07-22T05:52:03.430Z,10896
2017-07-22T05:54:20.506Z,8172
2017-07-22T05:56:46.256Z,11476
2017-07-22T05:59:12.072Z,12496
2017-07-22T06:01:38.057Z,14536
2017-07-22T06:04:04.585Z,16608
2017-07-22T06:06:30.744Z,19360
2017-07-22T06:08:57.576Z,22048
2017-07-22T06:11:24.197Z,36736
2017-07-22T06:13:50.981Z,56416
2017-07-22T06:16:17.836Z,71040
2017-07-22T06:18:44.914Z,85568
2017-07-22T06:21:11.994Z,82368
2017-07-22T06:23:39.260Z,95008
2017-07-22T06:26:06.639Z,88416
2017-07-22T06:28:34.005Z,93344
2017-07-22T06:33:03.643Z,90976
2017-07-22T06:35:22.505Z,75136
2017-07-22T06:39:52.253Z,39072
2017-07-22T06:42:19.925Z,36160
2017-07-22T06:44:47.634Z,34240
2017-07-22T06:47:15.878Z,31712
2017-07-22T06:49:43.309Z,28000
2017-07-22T06:52:11.165Z,23840
2017-07-22T06:54:39.070Z,22976
2017-07-22T06:57:07.039Z,21152
2017-07-22T06:59:34.880Z,15248
2017-07-22T07:02:02.737Z,12364
2017-07-22T07:04:30.644Z,12780
2017-07-22T07:09:02.446Z,16160
2017-07-22T07:11:29.821Z,17888
2017-07-22T07:13:56.943Z,19200
2017-07-22T07:16:23.840Z,19168
2017-07-22T07:18:51.587Z,18912
2017-07-22T07:20:53.965Z,18880
2017-07-22T07:25:58.456Z,14252
2017-07-22T07:28:24.651Z,14512
2017-07-22T07:30:50.814Z,17376
2017-07-22T07:33:16.972Z,20224
2017-07-22T07:35:42.961Z,23904
2017-07-22T07:38:08.987Z,21600
2017-07-22T07:40:34.896Z,18624
2017-07-22T07:43:01.765Z,17920
2017-07-22T07:45:19.097Z,17920
2017-07-22T07:47:36.434Z,17088
2017-07-22T07:50:02.343Z,15532
2017-07-22T07:52:19.820Z,15256
2017-07-22T07:54:45.905Z,15080
2017-07-22T07:57:03.484Z,14520
2017-07-22T07:59:29.569Z,14764
2017-07-22T08:01:47.112Z,14408
2017-07-22T08:04:13.191Z,14772
2017-07-22T08:06:39.335Z,14904
2017-07-22T08:09:05.512Z,14688
2017-07-22T08:11:31.752Z,14392
2017-07-22T08:13:58.001Z,14132
2017-07-22T08:16:27.635Z,15104
2017-07-22T08:18:56.593Z,14980
2017-07-22T08:21:22.894Z,15488
2017-07-22T08:23:49.209Z,15968
2017-07-22T08:26:15.565Z,16000
2017-07-22T08:28:42.475Z,15904
2017-07-22T08:31:09.191Z,11804
2017-07-22T08:33:35.489Z,16256
2017-07-22T08:36:01.973Z,16768
2017-07-22T08:38:28.897Z,15840
2017-07-22T08:40:55.269Z,9852
2017-07-22T08:43:21.454Z,11272
2017-07-22T08:45:47.640Z,16256
2017-07-22T08:50:07.553Z,6900
2017-07-22T08:52:33.504Z,7392
2017-07-22T08:54:59.351Z,10008
2017-07-22T08:57:25.126Z,14944
2017-07-22T08:59:50.873Z,13820
2017-07-22T09:02:16.539Z,12380
2017-07-22T09:04:42.348Z,10728
2017-07-22T09:07:08.530Z,11776
2017-07-22T09:09:34.055Z,11532
2017-07-22T09:11:59.847Z,11060
2017-07-22T09:14:10.309Z,11016
2017-07-22T09:16:36.206Z,10316
2017-07-22T09:19:02.350Z,10256
2017-07-22T09:21:28.333Z,9584
2017-07-22T09:23:54.556Z,9204
2017-07-22T09:26:20.953Z,9112
2017-07-22T09:28:50.395Z,4544
2017-07-22T09:31:16.468Z,8848
2017-07-22T09:35:18.770Z,4832
2017-07-22T09:37:52.509Z,4908
2017-07-22T09:40:18.278Z,8240
2017-07-22T09:42:44.538Z,7184
2017-07-22T09:45:10.730Z,6044
2017-07-22T09:47:36.505Z,7792
2017-07-22T09:50:02.434Z,7008
2017-07-22T09:52:28.415Z,6296
2017-07-22T09:54:54.441Z,6128
2017-07-22T09:57:11.664Z,4976
2017-07-22T09:59:37.297Z,4548
2017-07-22T10:04:04.744Z,6744
2017-07-22T10:06:30.396Z,7116
2017-07-22T10:08:47.442Z,5284
2017-07-22T10:11:13.021Z,5092
2017-07-22T10:13:38.544Z,5056
2017-07-22T10:16:04.072Z,4720
2017-07-22T10:18:29.602Z,4720
2017-07-22T10:20:55.056Z,5416
2017-07-22T10:23:20.583Z,6048
2017-07-22T10:25:45.999Z,6116
2017-07-22T10:28:11.468Z,6092
2017-07-22T10:30:36.976Z,5968
2017-07-22T10:33:02.537Z,5832
2017-07-22T10:35:28.092Z,5772
2017-07-22T10:37:53.559Z,5708
2017-07-22T10:40:19.076Z,5632
2017-07-22T10:42:44.546Z,5708
2017-07-22T10:45:10.458Z,5224
2017-07-22T10:47:38.953Z,4836
2017-07-22T10:50:04.851Z,4976
2017-07-22T10:52:32.197Z,5424
2017-07-22T10:54:57.877Z,5316
2017-07-22T10:57:23.440Z,5568
2017-07-22T10:59:40.348Z,5680
2017-07-22T11:02:05.854Z,5308
2017-07-22T11:04:34.116Z,5204
2017-07-22T11:06:59.814Z,5436
2017-07-22T11:09:25.504Z,5072
2017-07-22T11:11:52.204Z,4996
2017-07-22T11:14:17.748Z,5040
2017-07-22T11:19:03.415Z,5076
2017-07-22T11:21:28.854Z,4980
2017-07-22T11:23:54.280Z,5256
2017-07-22T11:26:19.622Z,4560
2017-07-22T11:28:45.012Z,5104
2017-07-22T11:31:01.927Z,4336
2017-07-22T11:33:27.686Z,4992
2017-07-22T11:35:54.633Z,4524
2017-07-22T11:38:20.071Z,4156
2017-07-22T11:43:57.275Z,4136
2017-07-22T11:46:22.729Z,4128
2017-07-22T11:48:48.164Z,4056
2017-07-22T11:51:05.061Z,3912
2017-07-22T11:53:13.445Z,3788
2017-07-22T11:55:38.844Z,4036
2017-07-22T11:58:04.324Z,4188
2017-07-22T12:00:29.702Z,3912
2017-07-22T12:02:55.142Z,3340
2017-07-22T12:05:20.528Z,3972
2017-07-22T12:07:46.014Z,3800
2017-07-22T12:10:11.352Z,3764
2017-07-22T12:12:36.840Z,3556
2017-07-22T12:14:56.201Z,3124
2017-07-22T12:17:21.511Z,3240
2017-07-22T12:19:47.134Z,3548
2017-07-22T12:22:12.385Z,3600
2017-07-22T12:24:37.740Z,4036
2017-07-22T12:27:03.107Z,4016
2017-07-22T12:29:29.712Z,4060
2017-07-22T12:31:55.179Z,3908
2017-07-22T12:34:20.521Z,3868
2017-07-22T12:36:45.892Z,3832
2017-07-22T12:39:12.318Z,3868
2017-07-22T12:41:38.340Z,4324
2017-07-22T12:44:03.982Z,4016
2017-07-22T12:46:22.095Z,3832
2017-07-22T12:48:57.066Z,3844
2017-07-22T12:51:25.741Z,3584
2017-07-22T12:53:51.259Z,3412
2017-07-22T12:56:16.515Z,2648
2017-07-22T13:00:48.292Z,2228
2017-07-22T13:03:13.872Z,2292
2017-07-22T13:05:41.159Z,2264
2017-07-22T13:08:07.787Z,2124
2017-07-22T13:10:33.884Z,1980
2017-07-22T13:13:01.268Z,2060
2017-07-22T13:15:28.011Z,2224
2017-07-22T13:18:00.756Z,2476
2017-07-22T13:20:26.938Z,2628
2017-07-22T13:22:57.107Z,2556
2017-07-22T13:25:26.940Z,2940
2017-07-22T13:27:54.494Z,3120
2017-07-22T13:30:20.629Z,3204
2017-07-22T13:32:49.637Z,3344
2017-07-22T13:35:14.856Z,3700
2017-07-22T13:37:40.274Z,4044
2017-07-22T13:40:06.217Z,4184
2017-07-22T13:42:32.983Z,4012
2017-07-22T13:44:59.286Z,3992
2017-07-22T13:47:25.363Z,4072
2017-07-22T13:49:51.244Z,3812
2017-07-22T13:52:16.358Z,3756
2017-07-22T13:54:41.994Z,3592
2017-07-22T13:57:08.231Z,3340
2017-07-22T13:59:34.386Z,3228
2017-07-22T14:02:01.625Z,3132
2017-07-22T14:04:27.431Z,3004
2017-07-22T14:06:58.147Z,2848
2017-07-22T14:09:22.548Z,2520
2017-07-22T14:11:49.039Z,2676
2017-07-22T14:14:14.677Z,2608
2017-07-22T14:16:40.024Z,2596
2017-07-22T14:19:05.542Z,2440
2017-07-22T14:21:31.226Z,2088
2017-07-22T14:23:56.435Z,2004
2017-07-22T14:26:23.769Z,2432
2017-07-22T14:28:50.629Z,2364
2017-07-22T14:31:16.047Z,2300
2017-07-22T14:33:42.043Z,2100
2017-07-22T14:36:07.775Z,2284
2017-07-22T14:38:33.337Z,2364
2017-07-22T14:40:59.845Z,2240
2017-07-22T14:43:25.086Z,1968
2017-07-22T14:45:50.321Z,2104
2017-07-22T14:48:15.478Z,1760
2017-07-22T14:50:40.909Z,2000
2017-07-22T14:53:06.939Z,1936
2017-07-22T14:55:33.336Z,1584
2017-07-22T14:57:59.245Z,1860
2017-07-22T15:00:24.993Z,1928
2017-07-22T15:02:51.359Z,1752
2017-07-22T15:05:16.615Z,1788
2017-07-22T15:07:42.635Z,1932
2017-07-22T15:12:06.802Z,1928
2017-07-22T15:14:32.108Z,1920
2017-07-22T15:16:57.695Z,1656
2017-07-22T15:19:39.882Z,1712
2017-07-22T15:22:12.948Z,1680
2017-07-22T15:24:39.774Z,1752
2017-07-22T15:27:04.863Z,1688
2017-07-22T15:29:29.965Z,1800
2017-07-22T15:31:54.999Z,1820
2017-07-22T15:34:11.616Z,1860
2017-07-22T15:36:36.689Z,1876
2017-07-22T15:39:01.795Z,1868
2017-07-22T15:41:26.951Z,1996
2017-07-22T15:43:52.097Z,2008
2017-07-22T15:46:17.222Z,1952
2017-07-22T15:48:42.500Z,1928
2017-07-22T15:51:07.598Z,2032
2017-07-22T15:55:34.906Z,1720
2017-07-22T15:58:00.065Z,1692
2017-07-22T16:00:25.199Z,1572
2017-07-22T16:02:33.343Z,1528
2017-07-22T16:04:58.457Z,1460
2017-07-22T16:07:15.070Z,1620
2017-07-22T16:09:40.190Z,1568
2017-07-22T16:11:56.826Z,1676
2017-07-22T16:14:21.883Z,1612
2017-07-22T16:16:47.003Z,1412
2017-07-22T16:19:12.066Z,1504
2017-07-22T16:21:28.601Z,1464
2017-07-22T16:25:55.302Z,1464
2017-07-22T16:28:20.327Z,1540
2017-07-22T16:30:45.309Z,1372
2017-07-22T16:33:01.823Z,1404
2017-07-22T16:35:26.793Z,1356
2017-07-22T16:37:51.823Z,1376
2017-07-22T16:40:16.843Z,1372
2017-07-22T16:42:41.889Z,1304
2017-07-22T16:45:06.939Z,1312
2017-07-22T16:47:23.418Z,1324
2017-07-22T16:49:48.389Z,1316
2017-07-22T16:52:04.846Z,1276
2017-07-22T16:54:29.833Z,1268
2017-07-22T16:56:54.781Z,1356
2017-07-22T16:59:11.266Z,1484
2017-07-22T17:01:36.284Z,1560
2017-07-22T17:03:52.764Z,1572
2017-07-22T17:06:17.743Z,1572
2017-07-22T17:08:34.181Z,1556
2017-07-22T17:10:59.089Z,1580
2017-07-22T17:13:24.043Z,1720
2017-07-22T17:15:49.016Z,1696
2017-07-22T17:18:13.986Z,1656
2017-07-22T17:20:38.942Z,1540
2017-07-22T17:23:04.910Z,1500
2017-07-22T17:25:29.921Z,1416
2017-07-22T17:27:46.445Z,1220
2017-07-22T17:30:11.426Z,1156
2017-07-22T17:32:36.388Z,1052
2017-07-22T17:35:01.385Z,1036
2017-07-22T17:37:26.376Z,1004
2017-07-22T17:39:51.350Z,956
2017-07-22T17:42:07.858Z,936
2017-07-22T17:44:32.829Z,936
2017-07-22T17:46:57.821Z,1000
2017-07-22T17:49:22.792Z,1044
2017-07-22T17:51:47.757Z,1068
2017-07-22T17:54:12.698Z,1056
2017-07-22T17:56:37.696Z,1080
2017-07-22T17:59:02.604Z,1072
2017-07-22T18:01:27.506Z,1036
2017-07-22T18:03:43.960Z,1024
2017-07-22T18:06:08.916Z,976
2017-07-22T18:08:33.828Z,892
2017-07-22T18:10:58.770Z,828
2017-07-22T18:13:23.737Z,764
2017-07-22T18:15:40.178Z,756
2017-07-22T18:18:05.080Z,720
2017-07-22T18:20:30.013Z,652
2017-07-22T18:22:55.192Z,604
2017-07-22T18:25:20.104Z,600
2017-07-22T18:27:45.105Z,540
2017-07-22T18:30:10.059Z,536
2017-07-22T18:32:34.997Z,488
2017-07-22T18:34:59.910Z,428
2017-07-22T18:37:24.856Z,384
2017-07-22T18:39:49.781Z,352
2017-07-22T18:42:00.763Z,328
2017-07-22T18:44:25.620Z,304
2017-07-22T18:46:50.562Z,272
2017-07-22T18:49:15.343Z,248
2017-07-22T18:51:40.647Z,220
2017-07-22T18:54:05.185Z,196
2017-07-22T18:56:30.022Z,160
2017-07-22T18:58:54.903Z,148
2017-07-22T19:01:19.663Z,112
2017-07-22T19:03:44.484Z,104
2017-07-22T19:06:09.488Z,92
2017-07-22T19:08:34.376Z,88
2017-07-22T19:10:59.221Z,72
2017-07-22T19:13:24.026Z,64
2017-07-22T19:15:48.765Z,52
2017-07-22T19:18:15.277Z,44
2017-07-22T19:20:41.433Z,36
2017-07-22T19:23:06.211Z,28
2017-07-22T19:25:30.963Z,20
2017-07-22T19:27:55.707Z,12
2017-07-22T19:30:20.548Z,8
2017-07-22T19:32:45.303Z,8
2017-07-22T19:35:10.358Z,4
2017-07-22T19:37:35.163Z,4
2017-07-22T19:39:59.918Z,4
2017-07-22T19:42:24.630Z,4
2017-07-22T19:44:49.597Z,0
2017-07-22T19:47:05.784Z,0
2017-07-22T19:49:30.864Z,0
2017-07-22T19:51:55.767Z,0
2017-07-22T19:54:21.595Z,0
2017-07-22T19:56:47.060Z,0
2017-07-22T19:59:03.008Z,0
2017-07-22T20:01:27.823Z,0
2017-07-22T20:03:52.643Z,0
2017-07-22T20:06:17.898Z,0
2017-07-22T20:08:27.996Z,0
2017-07-22T20:10:44.371Z,0
2017-07-22T20:13:09.040Z,0
2017-07-22T20:15:33.769Z,0
2017-07-22T20:17:50.044Z,0
2017-07-22T20:20:14.746Z,0
2017-07-22T20:22:39.475Z,0
2017-07-22T20:25:04.208Z,0
2017-07-22T20:27:20.421Z,0
2017-07-22T20:29:45.229Z,0
2017-07-22T20:32:10.036Z,0
2017-07-22T20:36:02.225Z,0
2017-07-22T20:38:27.036Z,0
2017-07-22T20:40:51.727Z,0
2017-07-22T20:43:16.423Z,0
2017-07-22T20:45:41.191Z,0
2017-07-22T20:48:05.986Z,0
2017-07-22T20:50:16.062Z,0
2017-07-22T20:52:40.748Z,0
2017-07-22T20:54:56.969Z,0
2017-07-22T20:57:07.071Z,0
2017-07-22T20:59:31.823Z,0
2017-07-22T21:01:48.066Z,0
2017-07-22T21:04:04.220Z,0
2017-07-22T21:06:29.013Z,0
2017-07-22T21:10:30.148Z,0
2017-07-22T21:12:54.748Z,0
2017-07-22T21:15:19.444Z,0
2017-07-22T21:17:44.145Z,0
2017-07-22T21:20:08.771Z,0
2017-07-22T21:22:33.457Z,0
2017-07-22T21:24:58.165Z,0
2017-07-22T21:27:23.055Z,0
2017-07-22T21:29:47.549Z,0
2017-07-22T21:32:12.185Z,0
2017-07-22T21:34:36.874Z,0
2017-07-22T21:37:01.515Z,0
2017-07-22T21:39:26.498Z,0
2017-07-22T21:41:52.031Z,0
2017-07-22T21:44:16.592Z,0
2017-07-22T21:46:41.178Z,0
2017-07-22T21:49:05.789Z,0
2017-07-22T21:51:30.373Z,0
2017-07-22T21:53:54.911Z,0
2017-07-22T21:56:21.506Z,0
2017-07-22T21:58:45.971Z,0
2017-07-22T22:01:10.562Z,0
2017-07-22T22:03:35.173Z,0
2017-07-22T22:05:59.760Z,0
2017-07-22T22:08:24.267Z,0
2017-07-22T22:10:48.872Z,0
2017-07-22T22:13:13.479Z,0
2017-07-22T22:15:38.029Z,0
2017-07-22T22:18:02.626Z,0
2017-07-22T22:20:27.203Z,0
2017-07-22T22:22:51.736Z,0
2017-07-22T22:25:16.316Z,0
2017-07-22T22:27:40.853Z,0
2017-07-22T22:30:05.397Z,0
2017-07-22T22:32:29.915Z,0
2017-07-22T22:34:54.680Z,0
2017-07-22T22:37:19.213Z,0
2017-07-22T22:39:43.755Z,0
2017-07-22T22:42:08.260Z,0
2017-07-22T22:44:32.739Z,0
2017-07-22T22:46:57.284Z,0
2017-07-22T22:49:21.832Z,0
2017-07-22T22:51:46.389Z,0
2017-07-22T22:54:10.936Z,0
2017-07-22T22:56:35.435Z,0
2017-07-22T22:58:59.989Z,0
2017-07-22T23:03:00.315Z,0
2017-07-22T23:05:24.859Z,0
2017-07-22T23:07:49.351Z,0
2017-07-22T23:10:13.843Z,0
2017-07-22T23:14:31.359Z,0
2017-07-22T23:16:47.413Z,0
2017-07-22T23:19:11.848Z,0
2017-07-22T23:21:36.324Z,0
2017-07-22T23:24:00.779Z,0
2017-07-22T23:26:25.228Z,0
2017-07-22T23:28:41.208Z,0
2017-07-22T23:30:57.166Z,0
2017-07-22T23:33:21.584Z,0
2017-07-22T23:35:29.116Z,0
2017-07-22T23:37:53.541Z,0
2017-07-22T23:40:17.960Z,0
2017-07-22T23:42:33.938Z,0
2017-07-22T23:44:58.400Z,0
2017-07-22T23:47:22.827Z,0
2017-07-22T23:49:47.274Z,0
2017-07-22T23:52:11.693Z,0
2017-07-22T23:54:36.127Z,0
2017-07-22T23:56:52.126Z,0
2017-07-22T23:59:16.614Z,0
